Terminal Aerodrome Forecast
Issued by NWS Cleveland, OH

Home | Current Version | Previous Version | Graphics & Text | Print | Product List | Glossary On
Versions: 1 2 3 4 5 6 7 8 9 10 11 12 13 14 15 16 17 18
655
FTUS41 KCLE 041730
TAFTOL
TAF
KTOL 041730Z 0418/0518 12006KT P6SM SCT030 OVC080
      TEMPO 0421/0422 BKN030
     FM042200 10006KT 6SM -RASN BR OVC025
     FM050000 10006KT 4SM -SN BR OVC010
      TEMPO 0500/0504 2SM -SN BR OVC006
     FM050600 25010KT P6SM OVC012
     FM051500 25010KT P6SM OVC025=

USA.gov is the U.S. government's official web portal to all federal, state and local government web resources and services.